Lathrup Village, Michigan
Current Conditions -  °F | °C
As of 1:55 AM on Saturday 25 Oct 2014 (Local Time) from KVLL Reporting Station
Clear Clear  
Wind Chill: 51°   Ceiling: Unl
Heat Index: 51°   Visibility: 7mi
Dew Point: 46°   Wind: 3mph
Humidity: 83%   Direction: 220°SW
Pressure: 29.94"   Gusts: NA
Location:  42.4974°N, 83.2307°W
Report Text: KVLL 250555Z AUTO 22003KT 7SM CLR 11/08 A2994 RMK AO2 T01050077 10140 20105 401740037
Loading
Personal Weather Stations






























Interactive Weather Map
Tropical Storm Tracking
New forecast layout! Learn more

10-Day Weather Forecast

Advertisements
Track Severe Weather on mobile